DSTT2: Red River at Denison Dam nr Denison, TX

Data processed at Fri Dec 08 2017 23:10


All information presented herein is the property of the government of the United States of America and may be revised or deleted at any time without prior notice.
Dissemination of this information without the expressed written consent of the Public Affairs Office, Tulsa District U.S. Army Corps of Engineers is strictly prohibited.
These data are gathered electronically and, as presented, have not undergone any form of quality control. These data are not guaranteed to be valid or correct.
Go to home page.
Go to station list.

Upstream stations:

Downstream station:
Previous Day
Next Day
Current Day
    
SHEF ID:       DSTT2     Red River at Denison Dam nr Deni
STATION TYPE:  

               PRECIP     STAGE  RIV-FLOW  BAT-LOAD
                   in        ft       cfs      volt
              Ccp-Rev   Ccp-Rev   Ccp-Rev   Ccp-Rev
(US/Central)
12/06 00:00      0.00      4.99       226     12.81
12/06 01:00      0.00      4.83       155     12.81
12/06 02:00      0.00      4.72       116     12.81
12/06 03:00      0.00      4.61        83     12.73
12/06 04:00      0.00      4.52        61     12.73
12/06 05:00      0.00      4.44        45     12.73
12/06 06:00      0.00      4.39        36     12.73
12/06 07:00      0.00      4.34        29     12.65
12/06 08:00      0.00      4.31        25     12.65
12/06 09:00      0.00      4.30        24     12.65
12/06 10:00      0.00      4.30        24     12.89
12/06 11:00      0.00      4.30        24     13.29
12/06 12:00      0.00      4.30        24     13.60
12/06 13:00      0.00      4.30        24     13.68
12/06 14:00      0.00      4.30        24     13.76
12/06 15:00      0.00      4.30        24     13.76
12/06 16:00      0.00      6.75      2026     13.68
12/06 17:00      0.00      7.38      3145     13.60
12/06 18:00      0.00      7.74      3909     13.29
12/06 19:00      0.00      7.92      4322     13.05
12/06 20:00      0.00      8.02      4561     12.97
12/06 21:00      0.00      8.07      4683     12.89
12/06 22:00      0.00      7.96      4417     12.89
12/06 23:00      0.00      6.61      1814     12.81